sensor_id;sensor_type;location;lat;lon;timestamp;pressure;altitude;pressure_sealevel;temperature;humidity
38900;BME280;24660;43.238;26.576;2022-08-19T00:00:23;98924.31;;;22.92;100.00
38900;BME280;24660;43.238;26.576;2022-08-19T00:02:49;98924.56;;;22.64;100.00
38900;BME280;24660;43.238;26.576;2022-08-19T00:05:15;98927.53;;;22.63;100.00
38900;BME280;24660;43.238;26.576;2022-08-19T00:07:42;98925.22;;;22.66;100.00
38900;BME280;24660;43.238;26.576;2022-08-19T00:10:09;98926.28;;;22.59;100.00
38900;BME280;24660;43.238;26.576;2022-08-19T00:12:35;98929.19;;;22.64;100.00
38900;BME280;24660;43.238;26.576;2022-08-19T00:15:04;98923.72;;;22.84;100.00
38900;BME280;24660;43.238;26.576;2022-08-19T00:17:30;98928.84;;;22.34;100.00
38900;BME280;24660;43.238;26.576;2022-08-19T00:19:55;98933.47;;;22.07;100.00
38900;BME280;24660;43.238;26.576;2022-08-19T00:22:21;98936.59;;;22.04;100.00
38900;BME280;24660;43.238;26.576;2022-08-19T00:24:46;98936.81;;;21.89;100.00
38900;BME280;24660;43.238;26.576;2022-08-19T00:27:12;98935.16;;;22.01;100.00
38900;BME280;24660;43.238;26.576;2022-08-19T00:29:37;98945.59;;;22.04;100.00
38900;BME280;24660;43.238;26.576;2022-08-19T00:32:03;98947.50;;;21.97;100.00
38900;BME280;24660;43.238;26.576;2022-08-19T00:34:29;98944.78;;;22.17;100.00
38900;BME280;24660;43.238;26.576;2022-08-19T00:36:56;98941.84;;;21.99;100.00
38900;BME280;24660;43.238;26.576;2022-08-19T00:39:22;98942.91;;;21.98;100.00
38900;BME280;24660;43.238;26.576;2022-08-19T00:41:49;98943.34;;;22.14;100.00
38900;BME280;24660;43.238;26.576;2022-08-19T00:44:19;98941.84;;;21.85;100.00
38900;BME280;24660;43.238;26.576;2022-08-19T00:46:47;98938.50;;;21.97;100.00
38900;BME280;24660;43.238;26.576;2022-08-19T00:49:17;98940.38;;;21.70;100.00
38900;BME280;24660;43.238;26.576;2022-08-19T00:51:46;98953.53;;;21.59;100.00
38900;BME280;24660;43.238;26.576;2022-08-19T00:54:13;98953.75;;;21.78;100.00
38900;BME280;24660;43.238;26.576;2022-08-19T00:56:40;98943.91;;;21.63;100.00
38900;BME280;24660;43.238;26.576;2022-08-19T00:59:07;98949.13;;;21.65;100.00
38900;BME280;24660;43.238;26.576;2022-08-19T01:01:38;98956.03;;;21.68;100.00
38900;BME280;24660;43.238;26.576;2022-08-19T01:04:04;98958.13;;;21.66;100.00
38900;BME280;24660;43.238;26.576;2022-08-19T01:06:31;98951.03;;;21.71;100.00
38900;BME280;24660;43.238;26.576;2022-08-19T01:08:58;98955.19;;;21.67;100.00
38900;BME280;24660;43.238;26.576;2022-08-19T01:11:24;98946.63;;;21.57;100.00
38900;BME280;24660;43.238;26.576;2022-08-19T01:13:52;98953.09;;;21.49;100.00
38900;BME280;24660;43.238;26.576;2022-08-19T01:16:21;98950.53;;;21.34;100.00
38900;BME280;24660;43.238;26.576;2022-08-19T01:18:48;98958.69;;;21.34;100.00
38900;BME280;24660;43.238;26.576;2022-08-19T01:23:47;98965.59;;;21.30;100.00
38900;BME280;24660;43.238;26.576;2022-08-19T01:26:17;98957.44;;;21.30;100.00
38900;BME280;24660;43.238;26.576;2022-08-19T01:28:45;98958.91;;;21.26;100.00
38900;BME280;24660;43.238;26.576;2022-08-19T01:31:16;98955.69;;;21.23;100.00
38900;BME280;24660;43.238;26.576;2022-08-19T01:33:42;98956.53;;;21.17;100.00
38900;BME280;24660;43.238;26.576;2022-08-19T01:36:11;98956.03;;;21.54;100.00
38900;BME280;24660;43.238;26.576;2022-08-19T01:38:40;98953.19;;;21.21;100.00
38900;BME280;24660;43.238;26.576;2022-08-19T01:41:07;98953.94;;;20.95;100.00
38900;BME280;24660;43.238;26.576;2022-08-19T01:43:33;98971.88;;;20.90;100.00
38900;BME280;24660;43.238;26.576;2022-08-19T01:45:58;98974.19;;;20.93;100.00
38900;BME280;24660;43.238;26.576;2022-08-19T01:48:24;98970.84;;;20.91;100.00
38900;BME280;24660;43.238;26.576;2022-08-19T01:50:50;98958.78;;;21.00;100.00
38900;BME280;24660;43.238;26.576;2022-08-19T01:53:15;98965.41;;;20.91;100.00
38900;BME280;24660;43.238;26.576;2022-08-19T01:55:42;98967.31;;;20.97;100.00
38900;BME280;24660;43.238;26.576;2022-08-19T01:58:15;98961.34;;;21.15;100.00
38900;BME280;24660;43.238;26.576;2022-08-19T02:00:42;98974.44;;;20.98;100.00
38900;BME280;24660;43.238;26.576;2022-08-19T02:03:08;98977.53;;;20.95;100.00
38900;BME280;24660;43.238;26.576;2022-08-19T02:05:35;98965.25;;;21.05;100.00
38900;BME280;24660;43.238;26.576;2022-08-19T02:08:00;98946.81;;;21.42;100.00
38900;BME280;24660;43.238;26.576;2022-08-19T02:10:26;98945.72;;;21.37;100.00
38900;BME280;24660;43.238;26.576;2022-08-19T02:12:51;98946.22;;;20.99;100.00
38900;BME280;24660;43.238;26.576;2022-08-19T02:15:18;98941.13;;;21.30;100.00
38900;BME280;24660;43.238;26.576;2022-08-19T02:17:45;98949.94;;;20.85;100.00
38900;BME280;24660;43.238;26.576;2022-08-19T02:20:11;98959.19;;;20.56;100.00
38900;BME280;24660;43.238;26.576;2022-08-19T02:22:38;98952.66;;;20.50;100.00
38900;BME280;24660;43.238;26.576;2022-08-19T02:25:07;98963.09;;;20.53;100.00
38900;BME280;24660;43.238;26.576;2022-08-19T02:27:33;98955.78;;;20.47;100.00
38900;BME280;24660;43.238;26.576;2022-08-19T02:29:59;98954.31;;;20.51;100.00
38900;BME280;24660;43.238;26.576;2022-08-19T02:32:27;98963.09;;;20.53;100.00
38900;BME280;24660;43.238;26.576;2022-08-19T02:34:55;98966.00;;;20.45;100.00
38900;BME280;24660;43.238;26.576;2022-08-19T02:37:21;98968.59;;;20.60;100.00
38900;BME280;24660;43.238;26.576;2022-08-19T02:40:02;98973.50;;;20.78;100.00
38900;BME280;24660;43.238;26.576;2022-08-19T02:42:28;98973.28;;;20.79;100.00
38900;BME280;24660;43.238;26.576;2022-08-19T02:44:55;98967.44;;;20.75;100.00
38900;BME280;24660;43.238;26.576;2022-08-19T02:47:20;98974.59;;;20.90;100.00
38900;BME280;24660;43.238;26.576;2022-08-19T02:49:46;98971.03;;;20.89;100.00
38900;BME280;24660;43.238;26.576;2022-08-19T02:52:15;98970.47;;;21.00;100.00
38900;BME280;24660;43.238;26.576;2022-08-19T02:54:41;98971.09;;;20.61;100.00
38900;BME280;24660;43.238;26.576;2022-08-19T02:57:07;98973.97;;;20.53;100.00
38900;BME280;24660;43.238;26.576;2022-08-19T02:59:33;98976.94;;;20.30;100.00
38900;BME280;24660;43.238;26.576;2022-08-19T03:02:01;98982.38;;;20.09;100.00
38900;BME280;24660;43.238;26.576;2022-08-19T03:04:27;98996.22;;;20.14;100.00
38900;BME280;24660;43.238;26.576;2022-08-19T03:06:52;98999.63;;;20.23;100.00
38900;BME280;24660;43.238;26.576;2022-08-19T03:09:19;98996.50;;;20.26;100.00
38900;BME280;24660;43.238;26.576;2022-08-19T03:11:45;99007.91;;;20.14;100.00
38900;BME280;24660;43.238;26.576;2022-08-19T03:14:11;99006.75;;;20.52;100.00
38900;BME280;24660;43.238;26.576;2022-08-19T03:16:46;98992.13;;;20.25;100.00
38900;BME280;24660;43.238;26.576;2022-08-19T03:19:13;99008.78;;;20.22;100.00
38900;BME280;24660;43.238;26.576;2022-08-19T03:21:39;99000.97;;;20.12;100.00
38900;BME280;24660;43.238;26.576;2022-08-19T03:24:07;99003.34;;;20.15;100.00
38900;BME280;24660;43.238;26.576;2022-08-19T03:26:33;99011.34;;;20.02;100.00
38900;BME280;24660;43.238;26.576;2022-08-19T03:29:04;99011.69;;;19.92;100.00
38900;BME280;24660;43.238;26.576;2022-08-19T03:31:30;99012.97;;;19.75;100.00
38900;BME280;24660;43.238;26.576;2022-08-19T03:33:56;99027.22;;;19.83;100.00
38900;BME280;24660;43.238;26.576;2022-08-19T03:36:25;99020.31;;;19.81;100.00
38900;BME280;24660;43.238;26.576;2022-08-19T03:38:53;99023.47;;;19.84;100.00
38900;BME280;24660;43.238;26.576;2022-08-19T03:41:23;99023.31;;;19.86;100.00
38900;BME280;24660;43.238;26.576;2022-08-19T03:43:49;99028.06;;;19.84;100.00
38900;BME280;24660;43.238;26.576;2022-08-19T03:46:18;99014.00;;;19.95;100.00
38900;BME280;24660;43.238;26.576;2022-08-19T03:48:46;99024.84;;;19.95;100.00
38900;BME280;24660;43.238;26.576;2022-08-19T03:51:22;99021.16;;;20.03;100.00
38900;BME280;24660;43.238;26.576;2022-08-19T03:53:49;99015.78;;;20.09;100.00
38900;BME280;24660;43.238;26.576;2022-08-19T03:56:15;99024.69;;;20.25;100.00
38900;BME280;24660;43.238;26.576;2022-08-19T03:58:41;99016.72;;;20.72;100.00
38900;BME280;24660;43.238;26.576;2022-08-19T04:01:09;99008.84;;;20.84;100.00
38900;BME280;24660;43.238;26.576;2022-08-19T04:03:35;99003.91;;;20.60;100.00
38900;BME280;24660;43.238;26.576;2022-08-19T04:06:17;99014.75;;;20.60;100.00
38900;BME280;24660;43.238;26.576;2022-08-19T04:08:45;99013.53;;;20.62;100.00
38900;BME280;24660;43.238;26.576;2022-08-19T04:11:15;99013.53;;;20.69;100.00
38900;BME280;24660;43.238;26.576;2022-08-19T04:13:41;99013.19;;;21.13;100.00
38900;BME280;24660;43.238;26.576;2022-08-19T04:16:10;99005.34;;;21.38;100.00
38900;BME280;24660;43.238;26.576;2022-08-19T04:18:36;99002.19;;;21.34;100.00
38900;BME280;24660;43.238;26.576;2022-08-19T04:21:03;99017.88;;;21.32;100.00
38900;BME280;24660;43.238;26.576;2022-08-19T04:23:29;99005.88;;;21.68;100.00
38900;BME280;24660;43.238;26.576;2022-08-19T04:25:55;99003.78;;;21.70;100.00
38900;BME280;24660;43.238;26.576;2022-08-19T04:28:21;99014.31;;;22.06;100.00
38900;BME280;24660;43.238;26.576;2022-08-19T04:30:49;99009.47;;;22.02;100.00
38900;BME280;24660;43.238;26.576;2022-08-19T04:33:18;99005.94;;;22.08;100.00
38900;BME280;24660;43.238;26.576;2022-08-19T04:35:46;99005.28;;;21.99;100.00
38900;BME280;24660;43.238;26.576;2022-08-19T04:38:13;99005.72;;;21.96;100.00
38900;BME280;24660;43.238;26.576;2022-08-19T04:40:43;99010.22;;;21.56;100.00
38900;BME280;24660;43.238;26.576;2022-08-19T04:43:24;99019.03;;;21.58;100.00
38900;BME280;24660;43.238;26.576;2022-08-19T04:45:49;99012.88;;;22.10;100.00
38900;BME280;24660;43.238;26.576;2022-08-19T04:48:16;99016.63;;;22.29;100.00
38900;BME280;24660;43.238;26.576;2022-08-19T04:50:43;99021.63;;;22.52;100.00
38900;BME280;24660;43.238;26.576;2022-08-19T04:53:09;99012.19;;;22.61;100.00
38900;BME280;24660;43.238;26.576;2022-08-19T04:55:38;99022.44;;;22.86;100.00
38900;BME280;24660;43.238;26.576;2022-08-19T04:58:04;99009.38;;;23.14;100.00
38900;BME280;24660;43.238;26.576;2022-08-19T05:00:29;99013.31;;;23.25;100.00
38900;BME280;24660;43.238;26.576;2022-08-19T05:02:55;99015.81;;;23.26;100.00
38900;BME280;24660;43.238;26.576;2022-08-19T05:05:20;99023.66;;;23.54;99.97
38900;BME280;24660;43.238;26.576;2022-08-19T05:07:46;99022.06;;;23.40;98.62
38900;BME280;24660;43.238;26.576;2022-08-19T05:10:12;99024.47;;;23.68;97.10
38900;BME280;24660;43.238;26.576;2022-08-19T05:12:37;99028.19;;;23.74;97.17
38900;BME280;24660;43.238;26.576;2022-08-19T05:15:05;99019.16;;;24.05;95.31
38900;BME280;24660;43.238;26.576;2022-08-19T05:17:31;99023.75;;;24.11;95.30
38900;BME280;24660;43.238;26.576;2022-08-19T05:19:56;99025.19;;;24.13;95.09
38900;BME280;24660;43.238;26.576;2022-08-19T05:22:37;99028.97;;;24.44;93.05
38900;BME280;24660;43.238;26.576;2022-08-19T05:25:05;99028.50;;;24.47;92.67
38900;BME280;24660;43.238;26.576;2022-08-19T05:27:31;99038.69;;;24.65;91.31
38900;BME280;24660;43.238;26.576;2022-08-19T05:29:57;99037.50;;;24.97;89.56
38900;BME280;24660;43.238;26.576;2022-08-19T05:32:23;99033.94;;;24.53;90.96
38900;BME280;24660;43.238;26.576;2022-08-19T05:34:49;99038.69;;;25.08;90.65
38900;BME280;24660;43.238;26.576;2022-08-19T05:37:14;99031.19;;;25.33;89.53
38900;BME280;24660;43.238;26.576;2022-08-19T05:39:40;99037.34;;;25.95;87.45
38900;BME280;24660;43.238;26.576;2022-08-19T05:42:08;99038.22;;;26.49;83.64
38900;BME280;24660;43.238;26.576;2022-08-19T05:44:38;99036.78;;;26.93;78.89
38900;BME280;24660;43.238;26.576;2022-08-19T05:47:06;99051.94;;;27.19;76.92
38900;BME280;24660;43.238;26.576;2022-08-19T05:49:37;99050.16;;;27.54;74.95
38900;BME280;24660;43.238;26.576;2022-08-19T05:52:08;99047.16;;;27.67;71.96
38900;BME280;24660;43.238;26.576;2022-08-19T05:54:34;99046.41;;;28.00;71.03
38900;BME280;24660;43.238;26.576;2022-08-19T05:57:01;99050.50;;;27.97;71.44
38900;BME280;24660;43.238;26.576;2022-08-19T05:59:27;99041.06;;;27.76;72.97
38900;BME280;24660;43.238;26.576;2022-08-19T06:01:53;99049.94;;;27.43;72.34
38900;BME280;24660;43.238;26.576;2022-08-19T06:04:21;99047.50;;;27.59;72.98
38900;BME280;24660;43.238;26.576;2022-08-19T06:06:49;99042.31;;;27.86;72.46
38900;BME280;24660;43.238;26.576;2022-08-19T06:09:16;99049.78;;;28.02;72.22
38900;BME280;24660;43.238;26.576;2022-08-19T06:11:44;99054.22;;;28.20;68.30
38900;BME280;24660;43.238;26.576;2022-08-19T06:14:13;99049.97;;;28.29;68.56
38900;BME280;24660;43.238;26.576;2022-08-19T06:16:41;99050.41;;;28.37;68.99
38900;BME280;24660;43.238;26.576;2022-08-19T06:19:10;99060.06;;;28.40;68.83
38900;BME280;24660;43.238;26.576;2022-08-19T06:21:39;99062.31;;;28.26;66.27
38900;BME280;24660;43.238;26.576;2022-08-19T06:24:06;99054.44;;;28.01;67.42
38900;BME280;24660;43.238;26.576;2022-08-19T06:26:35;99053.59;;;28.29;65.12
38900;BME280;24660;43.238;26.576;2022-08-19T06:29:02;99050.59;;;28.31;66.04
38900;BME280;24660;43.238;26.576;2022-08-19T06:31:29;99057.03;;;28.25;65.58
38900;BME280;24660;43.238;26.576;2022-08-19T06:33:54;99042.88;;;28.16;66.14
38900;BME280;24660;43.238;26.576;2022-08-19T06:36:24;99041.50;;;28.30;64.26
38900;BME280;24660;43.238;26.576;2022-08-19T06:38:53;99042.59;;;28.29;64.52
38900;BME280;24660;43.238;26.576;2022-08-19T06:41:19;99035.22;;;28.18;65.29
38900;BME280;24660;43.238;26.576;2022-08-19T06:43:44;99033.19;;;27.97;65.13
38900;BME280;24660;43.238;26.576;2022-08-19T06:46:12;99033.09;;;28.37;64.97
38900;BME280;24660;43.238;26.576;2022-08-19T06:48:38;99029.13;;;28.83;63.06
38900;BME280;24660;43.238;26.576;2022-08-19T06:51:04;99035.66;;;28.94;63.03
38900;BME280;24660;43.238;26.576;2022-08-19T06:53:31;99038.34;;;29.11;61.92
38900;BME280;24660;43.238;26.576;2022-08-19T06:55:57;99029.47;;;29.04;61.50
38900;BME280;24660;43.238;26.576;2022-08-19T06:58:27;99036.69;;;29.10;61.61
38900;BME280;24660;43.238;26.576;2022-08-19T07:01:00;99034.53;;;29.12;61.18
38900;BME280;24660;43.238;26.576;2022-08-19T07:03:32;99044.59;;;29.67;61.01
38900;BME280;24660;43.238;26.576;2022-08-19T07:06:14;99040.50;;;29.96;59.42
38900;BME280;24660;43.238;26.576;2022-08-19T07:08:44;99040.31;;;29.76;59.94
38900;BME280;24660;43.238;26.576;2022-08-19T07:11:11;99048.78;;;29.47;60.00
38900;BME280;24660;43.238;26.576;2022-08-19T07:13:39;99048.78;;;29.96;60.17
38900;BME280;24660;43.238;26.576;2022-08-19T07:16:07;99049.31;;;29.93;59.63
38900;BME280;24660;43.238;26.576;2022-08-19T07:18:33;99041.78;;;30.10;57.93
38900;BME280;24660;43.238;26.576;2022-08-19T07:21:11;99049.25;;;29.88;58.11
38900;BME280;24660;43.238;26.576;2022-08-19T07:23:37;99045.69;;;29.88;58.44
38900;BME280;24660;43.238;26.576;2022-08-19T07:26:06;99042.81;;;29.55;58.83
38900;BME280;24660;43.238;26.576;2022-08-19T07:28:32;99049.09;;;29.73;58.35
38900;BME280;24660;43.238;26.576;2022-08-19T07:30:57;99045.06;;;30.07;57.69
38900;BME280;24660;43.238;26.576;2022-08-19T07:33:23;99046.06;;;30.55;57.27
38900;BME280;24660;43.238;26.576;2022-08-19T07:35:49;99049.34;;;30.52;56.65
38900;BME280;24660;43.238;26.576;2022-08-19T07:38:15;99048.94;;;30.06;57.69
38900;BME280;24660;43.238;26.576;2022-08-19T07:40:41;99047.63;;;30.14;57.78
38900;BME280;24660;43.238;26.576;2022-08-19T07:43:08;99034.50;;;29.99;57.18
38900;BME280;24660;43.238;26.576;2022-08-19T07:45:34;99044.44;;;30.59;56.69
38900;BME280;24660;43.238;26.576;2022-08-19T07:47:59;99039.94;;;30.48;55.99
38900;BME280;24660;43.238;26.576;2022-08-19T07:50:26;99047.41;;;30.85;54.84
38900;BME280;24660;43.238;26.576;2022-08-19T07:52:52;99045.28;;;30.60;55.20
38900;BME280;24660;43.238;26.576;2022-08-19T07:55:20;99049.53;;;30.40;55.45
38900;BME280;24660;43.238;26.576;2022-08-19T07:57:46;99037.44;;;30.47;55.63
38900;BME280;24660;43.238;26.576;2022-08-19T08:00:12;99036.50;;;30.63;55.51
38900;BME280;24660;43.238;26.576;2022-08-19T08:02:38;99032.34;;;31.08;54.99
38900;BME280;24660;43.238;26.576;2022-08-19T08:05:04;99026.88;;;31.13;53.88
38900;BME280;24660;43.238;26.576;2022-08-19T08:07:45;99026.53;;;31.04;54.20
38900;BME280;24660;43.238;26.576;2022-08-19T08:10:26;99031.72;;;30.95;54.41
38900;BME280;24660;43.238;26.576;2022-08-19T08:12:51;99028.81;;;31.17;53.95
38900;BME280;24660;43.238;26.576;2022-08-19T08:15:17;99028.84;;;31.75;52.53
38900;BME280;24660;43.238;26.576;2022-08-19T08:17:44;99031.91;;;31.88;52.13
38900;BME280;24660;43.238;26.576;2022-08-19T08:20:11;99029.16;;;31.88;51.59
38900;BME280;24660;43.238;26.576;2022-08-19T08:22:36;99021.16;;;31.97;51.12
38900;BME280;24660;43.238;26.576;2022-08-19T08:25:20;99018.38;;;31.92;51.49
38900;BME280;24660;43.238;26.576;2022-08-19T08:27:46;99012.03;;;32.02;51.88
38900;BME280;24660;43.238;26.576;2022-08-19T08:30:15;99015.41;;;32.34;51.39
38900;BME280;24660;43.238;26.576;2022-08-19T08:32:42;99018.16;;;32.55;50.27
38900;BME280;24660;43.238;26.576;2022-08-19T08:35:11;99013.69;;;32.74;49.68
38900;BME280;24660;43.238;26.576;2022-08-19T08:37:37;99010.94;;;32.89;49.29
38900;BME280;24660;43.238;26.576;2022-08-19T08:40:08;99015.59;;;33.09;48.44
38900;BME280;24660;43.238;26.576;2022-08-19T08:42:42;99013.19;;;32.57;49.32
38900;BME280;24660;43.238;26.576;2022-08-19T08:45:14;99014.25;;;32.76;48.84
38900;BME280;24660;43.238;26.576;2022-08-19T08:47:44;99019.50;;;31.96;50.14
38900;BME280;24660;43.238;26.576;2022-08-19T08:50:19;99020.88;;;32.04;51.00
38900;BME280;24660;43.238;26.576;2022-08-19T08:52:47;99011.47;;;32.20;50.16
38900;BME280;24660;43.238;26.576;2022-08-19T08:55:18;99010.38;;;32.92;48.94
38900;BME280;24660;43.238;26.576;2022-08-19T09:00:39;98999.09;;;32.38;48.43
38900;BME280;24660;43.238;26.576;2022-08-19T09:03:19;99008.97;;;31.93;49.15
38900;BME280;24660;43.238;26.576;2022-08-19T09:05:49;99002.09;;;32.36;49.00
38900;BME280;24660;43.238;26.576;2022-08-19T09:10:55;99012.84;;;33.09;46.91
38900;BME280;24660;43.238;26.576;2022-08-19T09:13:31;99012.34;;;32.87;47.63
38900;BME280;24660;43.238;26.576;2022-08-19T09:16:15;99004.84;;;32.72;47.43
38900;BME280;24660;43.238;26.576;2022-08-19T09:18:45;99004.16;;;33.36;45.52
38900;BME280;24660;43.238;26.576;2022-08-19T09:21:13;99003.91;;;33.27;46.47
38900;BME280;24660;43.238;26.576;2022-08-19T09:23:39;99004.53;;;33.74;45.18
38900;BME280;24660;43.238;26.576;2022-08-19T09:26:15;98998.63;;;33.90;44.78
38900;BME280;24660;43.238;26.576;2022-08-19T09:28:42;99002.38;;;33.65;44.74
38900;BME280;24660;43.238;26.576;2022-08-19T09:31:10;99001.97;;;33.38;44.90
38900;BME280;24660;43.238;26.576;2022-08-19T09:33:36;98994.66;;;32.42;45.68
38900;BME280;24660;43.238;26.576;2022-08-19T09:36:06;98992.44;;;32.34;46.69
38900;BME280;24660;43.238;26.576;2022-08-19T09:38:32;98993.25;;;32.49;45.49
38900;BME280;24660;43.238;26.576;2022-08-19T09:41:03;98982.19;;;32.55;45.50
38900;BME280;24660;43.238;26.576;2022-08-19T09:43:30;98991.03;;;32.26;47.17
38900;BME280;24660;43.238;26.576;2022-08-19T09:45:56;98994.28;;;33.04;45.33
38900;BME280;24660;43.238;26.576;2022-08-19T09:48:22;98996.84;;;33.60;43.96
38900;BME280;24660;43.238;26.576;2022-08-19T09:50:47;98990.34;;;33.85;42.81
38900;BME280;24660;43.238;26.576;2022-08-19T09:53:13;98989.78;;;33.83;43.09
38900;BME280;24660;43.238;26.576;2022-08-19T09:55:42;98989.06;;;34.12;42.72
38900;BME280;24660;43.238;26.576;2022-08-19T09:58:08;98983.28;;;34.03;42.94
38900;BME280;24660;43.238;26.576;2022-08-19T10:00:34;98984.47;;;33.92;43.18
38900;BME280;24660;43.238;26.576;2022-08-19T10:03:01;98982.72;;;33.57;43.74
38900;BME280;24660;43.238;26.576;2022-08-19T10:05:27;98983.19;;;33.04;44.09
38900;BME280;24660;43.238;26.576;2022-08-19T10:08:09;98985.47;;;32.77;44.53
38900;BME280;24660;43.238;26.576;2022-08-19T10:10:35;98976.16;;;33.32;43.04
38900;BME280;24660;43.238;26.576;2022-08-19T10:13:01;98987.41;;;33.61;42.87
38900;BME280;24660;43.238;26.576;2022-08-19T10:15:26;98986.63;;;34.34;42.10
38900;BME280;24660;43.238;26.576;2022-08-19T10:17:51;98974.13;;;34.42;42.15
38900;BME280;24660;43.238;26.576;2022-08-19T10:20:17;98978.94;;;34.60;41.73
38900;BME280;24660;43.238;26.576;2022-08-19T10:22:43;98976.81;;;34.52;41.12
38900;BME280;24660;43.238;26.576;2022-08-19T10:25:09;98983.38;;;35.14;40.57
38900;BME280;24660;43.238;26.576;2022-08-19T10:27:34;98968.16;;;34.82;40.83
38900;BME280;24660;43.238;26.576;2022-08-19T10:30:00;98979.25;;;34.19;42.08
38900;BME280;24660;43.238;26.576;2022-08-19T10:32:26;98973.31;;;34.02;42.74
38900;BME280;24660;43.238;26.576;2022-08-19T10:34:52;98970.88;;;33.96;42.43
38900;BME280;24660;43.238;26.576;2022-08-19T10:37:17;98974.31;;;33.72;42.72
38900;BME280;24660;43.238;26.576;2022-08-19T10:39:45;98974.66;;;34.05;42.31
38900;BME280;24660;43.238;26.576;2022-08-19T10:42:13;98978.72;;;34.22;41.87
38900;BME280;24660;43.238;26.576;2022-08-19T10:44:39;98972.53;;;34.31;41.83
38900;BME280;24660;43.238;26.576;2022-08-19T10:47:04;98969.38;;;35.00;41.24
38900;BME280;24660;43.238;26.576;2022-08-19T10:49:30;98967.75;;;35.42;39.69
38900;BME280;24660;43.238;26.576;2022-08-19T10:51:56;98971.44;;;35.37;39.63
38900;BME280;24660;43.238;26.576;2022-08-19T10:54:36;98980.03;;;36.16;38.90
38900;BME280;24660;43.238;26.576;2022-08-19T10:57:17;98972.16;;;35.48;39.08
38900;BME280;24660;43.238;26.576;2022-08-19T10:59:42;98975.22;;;35.65;38.89
38900;BME280;24660;43.238;26.576;2022-08-19T11:02:08;98974.38;;;35.46;39.17
38900;BME280;24660;43.238;26.576;2022-08-19T11:04:35;98960.16;;;34.52;39.55
38900;BME280;24660;43.238;26.576;2022-08-19T11:07:01;98956.94;;;34.40;40.01
38900;BME280;24660;43.238;26.576;2022-08-19T11:09:27;98966.06;;;34.69;40.25
38900;BME280;24660;43.238;26.576;2022-08-19T11:11:53;98959.94;;;34.72;39.89
38900;BME280;24660;43.238;26.576;2022-08-19T11:14:19;98957.00;;;35.11;38.69
38900;BME280;24660;43.238;26.576;2022-08-19T11:16:45;98951.97;;;34.37;39.72
38900;BME280;24660;43.238;26.576;2022-08-19T11:19:11;98958.41;;;33.93;41.03
38900;BME280;24660;43.238;26.576;2022-08-19T11:21:38;98956.88;;;34.45;39.79
38900;BME280;24660;43.238;26.576;2022-08-19T11:24:05;98953.63;;;34.91;38.10
38900;BME280;24660;43.238;26.576;2022-08-19T11:26:31;98941.22;;;34.83;39.30
38900;BME280;24660;43.238;26.576;2022-08-19T11:28:57;98943.56;;;35.19;38.48
38900;BME280;24660;43.238;26.576;2022-08-19T11:31:24;98947.22;;;35.19;38.75
38900;BME280;24660;43.238;26.576;2022-08-19T11:33:50;98940.66;;;34.86;38.80
38900;BME280;24660;43.238;26.576;2022-08-19T11:36:17;98936.66;;;34.68;38.82
38900;BME280;24660;43.238;26.576;2022-08-19T11:38:44;98924.22;;;34.37;38.64
38900;BME280;24660;43.238;26.576;2022-08-19T11:41:09;98926.84;;;34.52;38.26
38900;BME280;24660;43.238;26.576;2022-08-19T11:43:35;98922.25;;;34.66;38.72
38900;BME280;24660;43.238;26.576;2022-08-19T11:46:03;98919.31;;;35.05;38.48
38900;BME280;24660;43.238;26.576;2022-08-19T11:48:28;98925.91;;;35.33;37.73
38900;BME280;24660;43.238;26.576;2022-08-19T11:50:54;98933.59;;;35.42;38.19
38900;BME280;24660;43.238;26.576;2022-08-19T11:53:21;98928.81;;;35.23;37.30
38900;BME280;24660;43.238;26.576;2022-08-19T11:55:47;98923.16;;;35.09;36.98
38900;BME280;24660;43.238;26.576;2022-08-19T11:58:13;98922.13;;;35.24;37.00
38900;BME280;24660;43.238;26.576;2022-08-19T12:00:40;98913.78;;;35.05;37.23
38900;BME280;24660;43.238;26.576;2022-08-19T12:03:06;98921.66;;;35.17;37.39
38900;BME280;24660;43.238;26.576;2022-08-19T12:05:31;98915.66;;;35.90;36.73
38900;BME280;24660;43.238;26.576;2022-08-19T12:07:56;98909.69;;;35.97;37.33
38900;BME280;24660;43.238;26.576;2022-08-19T12:10:22;98922.97;;;35.81;37.96
38900;BME280;24660;43.238;26.576;2022-08-19T12:12:47;98908.63;;;35.55;37.94
38900;BME280;24660;43.238;26.576;2022-08-19T12:15:13;98914.13;;;35.98;37.23
38900;BME280;24660;43.238;26.576;2022-08-19T12:17:39;98909.13;;;36.46;36.54
38900;BME280;24660;43.238;26.576;2022-08-19T12:20:05;98899.00;;;36.37;36.42
38900;BME280;24660;43.238;26.576;2022-08-19T12:22:33;98897.50;;;36.25;35.58
38900;BME280;24660;43.238;26.576;2022-08-19T12:25:00;98894.03;;;35.82;36.13
38900;BME280;24660;43.238;26.576;2022-08-19T12:27:25;98893.91;;;35.92;35.81
38900;BME280;24660;43.238;26.576;2022-08-19T12:29:51;98895.16;;;35.81;36.20
38900;BME280;24660;43.238;26.576;2022-08-19T12:32:16;98895.22;;;36.46;35.65
38900;BME280;24660;43.238;26.576;2022-08-19T12:34:41;98889.88;;;36.31;35.71
38900;BME280;24660;43.238;26.576;2022-08-19T12:37:07;98894.31;;;36.92;35.87
38900;BME280;24660;43.238;26.576;2022-08-19T12:39:35;98895.19;;;37.15;35.11
38900;BME280;24660;43.238;26.576;2022-08-19T12:42:00;98895.19;;;36.74;34.92
38900;BME280;24660;43.238;26.576;2022-08-19T12:44:26;98892.75;;;35.75;35.64
38900;BME280;24660;43.238;26.576;2022-08-19T12:46:51;98894.69;;;35.18;37.11
38900;BME280;24660;43.238;26.576;2022-08-19T12:49:17;98892.28;;;35.30;36.65
38900;BME280;24660;43.238;26.576;2022-08-19T12:51:43;98893.47;;;36.64;35.32
38900;BME280;24660;43.238;26.576;2022-08-19T12:54:08;98901.72;;;37.38;32.77